Time;durP1;ratioP1;P1;durP2;ratioP2;P2;SDS_P1;SDS_P2;PMS_P1;PMS_P2;Temp;Humidity;BMP_temperature;BMP_pressure;BME280_temperature;BME280_humidity;BME280_pressure;Samples;Min_cycle;Max_cycle;Signal;HPM_P1;HPM_P2
2023/04/15 00:01:22;;;;;;;11.07;6.10;;;;;;;6.95;74.26;100557.59;6247018;23;20125;-91
2023/04/15 00:03:51;;;;;;;8.85;6.00;;;;;;;6.99;74.32;100567.97;6250524;23;20004;-89
2023/04/15 00:06:16;;;;;;;8.25;6.15;;;;;;;7.05;73.84;100571.28;6250119;23;20047;-90
2023/04/15 00:08:42;;;;;;;12.10;6.80;;;;;;;7.00;74.77;100566.19;6250748;23;20000;-90
2023/04/15 00:11:07;;;;;;;10.45;6.63;;;;;;;6.98;73.56;100560.09;6249661;23;20086;-91
2023/04/15 00:13:33;;;;;;;10.27;6.50;;;;;;;7.01;74.22;100569.69;6222805;23;20007;-90
2023/04/15 00:15:59;;;;;;;9.52;6.78;;;;;;;6.98;74.50;100560.97;6249134;23;20004;-90
2023/04/15 00:18:24;;;;;;;12.77;7.07;;;;;;;6.97;74.56;100561.00;6250936;23;20004;-89
2023/04/15 00:20:53;;;;;;;10.10;6.82;;;;;;;6.95;74.83;100566.38;6251335;23;20004;-90
2023/04/15 00:23:18;;;;;;;9.82;6.85;;;;;;;6.91;75.24;100559.50;6223224;23;20038;-92
2023/04/15 00:25:44;;;;;;;13.65;7.35;;;;;;;6.91;74.91;100563.94;6249135;23;20004;-91
2023/04/15 00:28:09;;;;;;;9.10;6.80;;;;;;;6.84;75.88;100555.34;6251252;23;20003;-91
2023/04/15 00:30:35;;;;;;;10.25;6.63;;;;;;;6.82;75.74;100559.88;6251308;23;20018;-90
2023/04/15 00:33:03;;;;;;;9.82;7.13;;;;;;;6.79;76.45;100564.41;6223569;23;20004;-90
2023/04/15 00:35:31;;;;;;;10.18;6.63;;;;;;;6.76;76.11;100554.81;6249044;23;20004;-90
2023/04/15 00:37:57;;;;;;;10.85;7.25;;;;;;;6.71;76.33;100551.50;6250925;23;20011;-91
2023/04/15 00:40:23;;;;;;;12.65;7.40;;;;;;;6.59;76.83;100551.97;6223588;23;20008;-90
2023/04/15 00:42:49;;;;;;;11.88;7.28;;;;;;;6.66;76.98;100553.47;6251086;23;20020;-91
2023/04/15 00:45:14;;;;;;;12.80;7.75;;;;;;;6.63;77.38;100562.34;6251172;23;20004;-91
2023/04/15 00:47:41;;;;;;;10.40;7.03;;;;;;;6.59;78.19;100557.25;6250396;23;20059;-90
2023/04/15 00:50:08;;;;;;;12.23;7.80;;;;;;;6.55;77.55;100558.28;6250220;23;20036;-90
2023/04/15 00:52:33;;;;;;;11.05;7.75;;;;;;;6.51;78.07;100559.34;6251036;23;20322;-91
2023/04/15 00:54:59;;;;;;;11.43;8.40;;;;;;;6.49;78.76;100562.03;6250417;23;20003;-91
2023/04/15 00:57:26;;;;;;;12.45;8.25;;;;;;;6.39;78.91;100556.22;6249593;23;20038;-90
2023/04/15 00:59:52;;;;;;;10.45;7.32;;;;;;;6.40;79.00;100552.69;6225188;23;20006;-90
2023/04/15 01:02:18;;;;;;;12.20;8.40;;;;;;;6.38;79.26;100564.22;6251864;23;20004;-92
2023/04/15 01:04:43;;;;;;;10.63;8.38;;;;;;;6.32;80.23;100565.34;6258161;23;20043;-90
2023/04/15 01:07:08;;;;;;;12.40;8.30;;;;;;;6.34;80.88;100560.84;6264314;23;20003;-89
2023/04/15 01:09:34;;;;;;;10.20;8.20;;;;;;;6.27;81.31;100562.00;6264403;23;20012;-89
2023/04/15 01:11:59;;;;;;;12.40;9.40;;;;;;;6.21;80.98;100559.56;6264666;23;20000;-89
2023/04/15 01:14:25;;;;;;;13.43;9.05;;;;;;;6.20;81.11;100556.06;6257164;23;20497;-90
2023/04/15 01:16:52;;;;;;;12.65;9.20;;;;;;;6.17;82.97;100553.53;6251803;23;20077;-91
2023/04/15 01:19:17;;;;;;;11.32;9.05;;;;;;;6.18;82.87;100557.91;6252440;23;20004;-90
2023/04/15 01:21:43;;;;;;;11.93;9.38;;;;;;;6.16;82.40;100570.31;6233330;23;20016;-89
2023/04/15 01:24:10;;;;;;;13.45;9.68;;;;;;;6.15;82.96;100562.47;6243346;22;20020;-90
2023/04/15 01:26:39;;;;;;;13.15;9.65;;;;;;;6.18;83.40;100570.25;6269491;22;20023;-90
2023/04/15 01:29:05;;;;;;;16.40;10.63;;;;;;;6.14;82.59;100569.50;6268841;22;19997;-90
2023/04/15 01:31:31;;;;;;;14.20;10.27;;;;;;;6.09;82.37;100563.53;6269343;22;19996;-89
2023/04/15 01:33:56;;;;;;;14.82;10.25;;;;;;;6.09;82.56;100565.31;6268979;22;20068;-90
2023/04/15 01:36:21;;;;;;;13.93;10.73;;;;;;;6.07;82.58;100559.25;6265521;22;20016;-90
2023/04/15 01:38:47;;;;;;;14.05;10.30;;;;;;;6.10;82.26;100556.47;6253874;23;20000;-92
2023/04/15 01:41:13;;;;;;;13.68;10.38;;;;;;;6.09;83.21;100563.53;6254071;23;20071;-91
2023/04/15 01:43:38;;;;;;;12.70;10.18;;;;;;;6.01;82.63;100557.66;6252719;23;20004;-91
2023/04/15 01:46:04;;;;;;;14.27;10.95;;;;;;;5.99;82.65;100556.88;6253039;23;20015;-91
2023/04/15 01:48:29;;;;;;;14.90;10.50;;;;;;;5.87;82.79;100552.84;6253362;22;20008;-92
2023/04/15 01:50:57;;;;;;;14.98;10.52;;;;;;;5.92;82.51;100569.44;6255000;23;20027;-92
2023/04/15 01:53:24;;;;;;;14.35;10.35;;;;;;;5.86;82.44;100559.06;6254863;23;20053;-90
2023/04/15 01:55:50;;;;;;;14.30;10.88;;;;;;;5.84;82.18;100566.16;6252299;23;20377;-91
2023/04/15 01:58:16;;;;;;;13.70;11.25;;;;;;;5.81;82.46;100561.00;6227138;23;20004;-91
2023/04/15 02:00:42;;;;;;;15.07;10.95;;;;;;;5.78;83.90;100558.47;6252170;23;20457;-91
2023/04/15 02:03:08;;;;;;;13.50;10.65;;;;;;;5.69;83.74;100556.16;6252279;23;20064;-91
2023/04/15 02:05:34;;;;;;;13.43;10.82;;;;;;;5.67;83.33;100564.13;6253570;23;20158;-92
2023/04/15 02:07:59;;;;;;;12.90;10.30;;;;;;;5.56;84.49;100545.19;6228413;23;20091;-91
2023/04/15 02:10:25;;;;;;;13.77;11.45;;;;;;;5.55;83.80;100556.63;6258236;23;20012;-90
2023/04/15 02:12:53;;;;;;;15.80;10.23;;;;;;;5.57;84.90;100559.22;6230371;23;20031;-91
2023/04/15 02:15:19;;;;;;;16.08;11.00;;;;;;;5.50;84.88;100562.06;6227275;23;20077;-91
2023/04/15 02:17:49;;;;;;;15.90;11.55;;;;;;;5.48;84.87;100565.69;6243214;23;20027;-91
2023/04/15 02:20:14;;;;;;;15.65;11.02;;;;;;;5.44;84.71;100566.72;6216091;23;20015;-90
2023/04/15 02:22:40;;;;;;;15.00;11.48;;;;;;;5.43;85.17;100573.78;6243418;23;20004;-89
2023/04/15 02:25:06;;;;;;;14.43;11.50;;;;;;;5.29;85.01;100570.72;6244205;23;20499;-91
2023/04/15 02:27:31;;;;;;;16.30;12.50;;;;;;;5.31;85.87;100570.66;6244779;23;20000;-90
2023/04/15 02:29:57;;;;;;;14.88;11.57;;;;;;;5.27;85.87;100574.31;6244716;23;20095;-89
2023/04/15 02:32:23;;;;;;;13.93;11.23;;;;;;;5.22;86.20;100582.38;6244993;23;20000;-92
2023/04/15 02:34:48;;;;;;;19.58;12.07;;;;;;;5.24;87.62;100573.50;6246307;23;20000;-92
2023/04/15 02:37:13;;;;;;;18.27;12.25;;;;;;;5.18;86.74;100586.03;6246490;23;20010;-90
2023/04/15 02:39:39;;;;;;;16.63;11.93;;;;;;;5.18;86.81;100586.94;6246760;23;20035;-90
2023/04/15 02:42:04;;;;;;;16.27;12.70;;;;;;;5.14;86.43;100593.22;6244360;23;20416;-91
2023/04/15 02:44:31;;;;;;;15.57;12.25;;;;;;;5.09;88.01;100579.28;6244974;23;20000;-90
2023/04/15 02:46:57;;;;;;;15.20;11.65;;;;;;;5.15;86.86;100596.72;6243747;23;20038;-92
2023/04/15 02:49:23;;;;;;;15.05;12.00;;;;;;;5.14;87.24;100598.50;6242154;22;20016;-92
2023/04/15 02:51:48;;;;;;;15.45;11.40;;;;;;;5.13;87.11;100590.59;6242027;23;20012;-92
2023/04/15 02:54:24;;;;;;;16.02;11.70;;;;;;;5.08;87.27;100603.09;6242284;23;20008;-91
2023/04/15 02:56:49;;;;;;;14.93;11.93;;;;;;;5.03;88.39;100599.75;6241588;23;20000;-90
2023/04/15 02:59:15;;;;;;;17.45;12.55;;;;;;;4.96;88.40;100599.91;6216391;23;20082;-90
2023/04/15 03:01:40;;;;;;;14.65;12.10;;;;;;;4.92;88.54;100593.00;6241834;23;20003;-93
2023/04/15 03:04:08;;;;;;;14.07;11.77;;;;;;;4.83;88.39;100598.59;6244177;23;20015;-91
2023/04/15 03:06:34;;;;;;;14.07;12.50;;;;;;;4.78;89.17;100592.59;6243117;23;20472;-91
2023/04/15 03:09:01;;;;;;;13.77;12.13;;;;;;;4.76;89.69;100604.94;6219582;23;20000;-90
2023/04/15 03:14:01;;;;;;;13.88;12.18;;;;;;;4.64;89.61;100586.88;6234120;22;20028;-93
2023/04/15 03:16:27;;;;;;;15.18;11.65;;;;;;;4.48;89.81;100568.03;6246112;23;20067;-91
2023/04/15 03:18:52;;;;;;;16.42;12.32;;;;;;;4.39;90.59;100560.38;6246542;23;20011;-91
2023/04/15 03:21:18;;;;;;;14.93;12.05;;;;;;;4.45;90.74;100566.34;6246606;23;20008;-90
2023/04/15 03:23:44;;;;;;;14.02;11.60;;;;;;;4.38;89.71;100587.66;6246315;23;20321;-90
2023/04/15 03:26:23;;;;;;;15.15;12.35;;;;;;;4.37;90.83;100578.88;6247361;23;20083;-91
2023/04/15 03:28:48;;;;;;;15.65;12.10;;;;;;;4.44;91.63;100592.75;6254346;23;20007;-90
2023/04/15 03:31:13;;;;;;;16.83;12.68;;;;;;;4.44;93.17;100600.66;6268629;22;20016;-92
2023/04/15 03:33:39;;;;;;;16.52;13.40;;;;;;;4.28;92.50;100563.34;6269423;22;20026;-91
2023/04/15 03:36:04;;;;;;;15.02;12.63;;;;;;;4.31;92.95;100578.22;6268827;22;20018;-92
2023/04/15 03:38:30;;;;;;;14.40;12.40;;;;;;;4.29;93.54;100590.56;6268589;23;20039;-91
2023/04/15 03:40:55;;;;;;;15.18;12.85;;;;;;;4.22;93.57;100582.84;6268773;22;20006;-91
2023/04/15 03:43:21;;;;;;;16.80;13.43;;;;;;;4.26;94.45;100594.13;6269407;22;19988;-90
2023/04/15 03:45:46;;;;;;;16.45;12.90;;;;;;;4.32;93.95;100609.78;6252992;23;20020;-91
2023/04/15 03:48:12;;;;;;;16.45;13.07;;;;;;;4.24;94.51;100606.50;6248805;23;20004;-91
2023/04/15 03:50:37;;;;;;;16.65;12.90;;;;;;;4.20;94.65;100610.13;6249334;23;20011;-91
2023/04/15 03:53:02;;;;;;;15.02;13.35;;;;;;;4.12;94.63;100615.63;6247886;23;20475;-91
2023/04/15 03:55:28;;;;;;;15.25;12.82;;;;;;;4.28;94.81;100636.25;6246326;23;20044;-90
2023/04/15 03:57:53;;;;;;;16.20;12.57;;;;;;;4.13;94.77;100622.59;6245521;23;20429;-93
2023/04/15 04:00:19;;;;;;;15.73;13.20;;;;;;;3.81;94.59;100589.28;6244127;23;20009;-93
2023/04/15 04:02:44;;;;;;;14.40;12.52;;;;;;;3.84;95.55;100596.19;6242584;23;20031;-91
2023/04/15 04:05:10;;;;;;;16.35;13.40;;;;;;;4.07;95.88;100640.38;6242783;23;20004;-92
2023/04/15 04:07:35;;;;;;;15.75;13.10;;;;;;;4.06;96.26;100641.28;6242580;23;20004;-90
2023/04/15 04:10:02;;;;;;;16.80;13.07;;;;;;;4.10;96.25;100653.47;6243020;23;20010;-91
2023/04/15 04:12:27;;;;;;;15.43;13.25;;;;;;;3.90;96.45;100625.88;6216259;23;20046;-91
2023/04/15 04:14:53;;;;;;;17.58;13.30;;;;;;;3.97;96.47;100645.88;6242227;22;20426;-94
2023/04/15 04:17:18;;;;;;;17.15;13.45;;;;;;;3.87;96.76;100639.13;6242332;23;20047;-91
2023/04/15 04:19:44;;;;;;;16.00;13.75;;;;;;;3.80;97.17;100650.69;6243828;23;20336;-93
2023/04/15 04:22:09;;;;;;;14.95;13.30;;;;;;;3.70;97.67;100630.81;6243103;23;20003;-92
2023/04/15 04:24:35;;;;;;;16.20;13.15;;;;;;;3.75;98.16;100649.97;6243940;23;20023;-93
2023/04/15 04:27:00;;;;;;;14.40;12.95;;;;;;;3.77;97.90;100647.31;6243392;23;20015;-91
2023/04/15 04:29:26;;;;;;;16.90;13.18;;;;;;;3.71;98.65;100637.78;6244892;23;20008;-91
2023/04/15 04:31:51;;;;;;;17.10;14.18;;;;;;;3.77;98.85;100655.22;6246786;23;20058;-91
2023/04/15 04:34:17;;;;;;;14.63;13.13;;;;;;;3.78;99.39;100662.19;6246011;23;20094;-91
2023/04/15 04:36:42;;;;;;;15.90;14.02;;;;;;;3.68;99.31;100648.41;6246915;23;20000;-90
2023/04/15 04:39:07;;;;;;;17.42;13.80;;;;;;;3.68;99.69;100658.94;6244861;23;19999;-91
2023/04/15 04:41:33;;;;;;;14.52;13.13;;;;;;;3.69;99.82;100664.16;6243935;23;20142;-90
2023/04/15 04:43:58;;;;;;;15.80;14.13;;;;;;;3.76;100.00;100672.75;6243021;23;19992;-91
2023/04/15 04:46:24;;;;;;;16.85;14.15;;;;;;;3.85;100.00;100696.22;6245339;23;20446;-91
2023/04/15 04:48:49;;;;;;;16.42;14.23;;;;;;;3.61;100.00;100652.09;6247733;23;20031;-89
2023/04/15 04:51:14;;;;;;;14.73;13.18;;;;;;;3.63;100.00;100666.06;6246714;23;20019;-92
2023/04/15 04:53:40;;;;;;;15.95;13.43;;;;;;;3.68;100.00;100680.88;6243725;23;20046;-91
2023/04/15 04:56:05;;;;;;;16.27;13.68;;;;;;;3.87;100.00;100723.38;6241246;23;20764;-90
2023/04/15 04:58:31;;;;;;;15.48;13.63;;;;;;;3.68;100.00;100695.78;6239815;23;20012;-90
2023/04/15 05:00:57;;;;;;;15.48;13.82;;;;;;;3.62;100.00;100678.38;6238939;23;20100;-91
2023/04/15 05:03:22;;;;;;;17.83;13.95;;;;;;;3.72;100.00;100700.03;6212017;23;20019;-91
2023/04/15 05:05:48;;;;;;;15.57;13.88;;;;;;;3.80;100.00;100716.53;6239866;23;20004;-91
2023/04/15 05:08:14;;;;;;;16.17;13.50;;;;;;;3.68;100.00;100701.06;6240525;23;20340;-91
2023/04/15 05:10:39;;;;;;;14.40;12.90;;;;;;;3.87;100.00;100736.53;6239758;23;20008;-90
2023/04/15 05:13:05;;;;;;;16.17;13.70;;;;;;;3.56;100.00;100690.84;6239885;22;20095;-91
2023/04/15 05:15:31;;;;;;;14.75;13.25;;;;;;;3.60;100.00;100700.38;6239294;23;20531;-90
2023/04/15 05:17:56;;;;;;;15.18;13.55;;;;;;;3.88;100.00;100743.53;6239495;23;20008;-90
2023/04/15 05:20:22;;;;;;;15.55;13.95;;;;;;;3.67;100.00;100718.59;6238628;23;20011;-91
2023/04/15 05:22:47;;;;;;;16.15;14.00;;;;;;;3.69;100.00;100710.69;6239110;23;20004;-91
2023/04/15 05:25:12;;;;;;;14.93;13.35;;;;;;;3.74;100.00;100732.47;6210929;23;20000;-90
2023/04/15 05:27:38;;;;;;;16.05;14.15;;;;;;;3.79;100.00;100735.00;6239362;23;20316;-93
2023/04/15 05:30:04;;;;;;;14.88;13.38;;;;;;;3.70;100.00;100723.78;6241021;23;20377;-91
2023/04/15 05:32:30;;;;;;;16.88;13.93;;;;;;;4.01;100.00;100775.69;6239847;23;20011;-92
2023/04/15 05:34:55;;;;;;;16.25;14.63;;;;;;;3.82;100.00;100743.69;6238405;23;20540;-93
2023/04/15 05:37:21;;;;;;;16.23;14.00;;;;;;;3.76;100.00;100746.47;6240443;23;20000;-92
2023/04/15 05:39:47;;;;;;;15.23;13.63;;;;;;;3.72;100.00;100731.63;6215807;23;20004;-91
2023/04/15 05:42:13;;;;;;;16.55;13.82;;;;;;;3.93;100.00;100777.63;6241837;23;20004;-90
2023/04/15 05:44:38;;;;;;;16.20;14.50;;;;;;;3.70;100.00;100746.63;6241501;23;20011;-91
2023/04/15 05:47:04;;;;;;;15.32;13.70;;;;;;;3.76;100.00;100764.88;6242569;23;20437;-91
2023/04/15 05:49:30;;;;;;;17.13;15.30;;;;;;;3.97;100.00;100798.63;6240770;23;20004;-90
2023/04/15 05:51:55;;;;;;;16.38;14.35;;;;;;;3.87;100.00;100783.06;6240997;23;20014;-91
2023/04/15 05:54:23;;;;;;;16.98;15.13;;;;;;;3.98;100.00;100802.97;6240673;23;20425;-89
2023/04/15 05:56:49;;;;;;;15.77;14.20;;;;;;;3.88;100.00;100780.38;6250862;23;20000;-90
2023/04/15 05:59:14;;;;;;;17.95;15.55;;;;;;;3.82;100.00;100763.88;6240824;23;20050;-90
2023/04/15 06:01:39;;;;;;;17.15;15.35;;;;;;;4.04;100.00;100785.28;6266590;22;20103;-90
2023/04/15 06:04:05;;;;;;;17.23;15.23;;;;;;;3.92;100.00;100758.34;6266039;22;20155;-90
2023/04/15 06:06:31;;;;;;;16.65;14.85;;;;;;;4.17;100.00;100778.81;6266856;22;19997;-89
2023/04/15 06:08:57;;;;;;;16.75;15.00;;;;;;;4.24;100.00;100790.91;6268423;22;20008;-91
2023/04/15 06:11:22;;;;;;;16.05;14.35;;;;;;;4.33;100.00;100777.50;6261042;22;20000;-89
2023/04/15 06:13:48;;;;;;;17.77;15.45;;;;;;;4.70;100.00;100819.56;6245473;22;20016;-88
2023/04/15 06:16:13;;;;;;;17.35;15.55;;;;;;;4.80;100.00;100801.72;6249682;23;20000;-89
2023/04/15 06:18:39;;;;;;;16.90;14.48;;;;;;;4.98;100.00;100810.91;6254588;23;20008;-90
2023/04/15 06:21:04;;;;;;;17.05;15.25;;;;;;;5.34;100.00;100840.63;6257448;23;20004;-90
2023/04/15 06:23:30;;;;;;;17.95;14.50;;;;;;;5.41;100.00;100828.13;6253697;23;20378;-90
2023/04/15 06:25:55;;;;;;;17.00;14.88;;;;;;;5.60;99.71;100825.78;6251121;23;20008;-89
2023/04/15 06:28:21;;;;;;;15.95;14.30;;;;;;;5.79;98.09;100831.38;6243633;23;20011;-89
2023/04/15 06:30:46;;;;;;;17.15;14.77;;;;;;;5.90;97.68;100826.63;6242867;23;20012;-89
2023/04/15 06:33:12;;;;;;;15.35;13.68;;;;;;;6.02;96.54;100815.69;6242545;23;20493;-89
2023/04/15 06:35:38;;;;;;;14.70;13.20;;;;;;;6.43;95.65;100853.94;6241135;23;20008;-89
2023/04/15 06:38:03;;;;;;;14.93;13.38;;;;;;;6.40;94.15;100825.00;6241692;23;20000;-88
2023/04/15 06:40:29;;;;;;;14.55;12.85;;;;;;;6.64;94.34;100839.13;6214408;23;20298;-89
2023/04/15 06:42:54;;;;;;;14.15;12.65;;;;;;;6.78;93.25;100843.09;6245512;23;20020;-91
2023/04/15 06:45:19;;;;;;;13.98;12.57;;;;;;;7.21;91.46;100884.75;6217347;23;20078;-90
2023/04/15 06:47:45;;;;;;;13.85;12.40;;;;;;;7.18;90.26;100863.69;6242429;23;20083;-89
2023/04/15 06:50:10;;;;;;;13.52;12.20;;;;;;;7.17;89.49;100848.72;6242602;23;20253;-90
2023/04/15 09:50:05;;;;;;;5.75;5.15;;;;;;;20.23;34.76;101135.03;6155053;22;1261754;-89
2023/04/15 09:52:31;;;;;;;6.35;4.93;;;;;;;20.75;34.59;101130.50;6174530;23;20017;-86
2023/04/15 09:54:58;;;;;;;5.47;4.88;;;;;;;20.87;34.27;101146.50;6176920;23;20012;-87
2023/04/15 09:57:23;;;;;;;5.10;4.60;;;;;;;21.21;34.17;101142.59;6176898;23;20032;-88
2023/04/15 09:59:50;;;;;;;4.45;3.95;;;;;;;21.12;32.98;101128.06;6175363;23;20085;-86
2023/04/15 10:02:17;;;;;;;5.18;3.67;;;;;;;20.55;33.22;101143.09;6176108;23;20005;-86
2023/04/15 10:04:44;;;;;;;3.35;3.05;;;;;;;20.63;33.25;101124.34;6147700;23;20451;-85
2023/04/15 10:07:11;;;;;;;3.58;3.28;;;;;;;21.04;32.64;101138.72;6175429;23;20141;-86
2023/04/15 10:09:38;;;;;;;6.18;4.20;;;;;;;20.34;33.30;101130.44;6176594;23;20075;-87
2023/04/15 10:12:04;;;;;;;5.18;4.18;;;;;;;19.92;33.75;101120.63;6173494;23;20001;-88
2023/04/15 10:14:34;;;;;;;4.05;3.72;;;;;;;19.83;34.72;101119.59;6176369;23;20060;-88
2023/04/15 10:17:04;;;;;;;4.47;4.07;;;;;;;20.52;33.83;101127.97;6177488;23;20017;-88
2023/04/15 10:19:32;;;;;;;4.53;4.13;;;;;;;21.35;32.53;101121.41;6175665;23;20092;-86
2023/04/15 10:21:58;;;;;;;5.60;4.20;;;;;;;22.22;31.63;101114.25;6174928;23;20091;-86
2023/04/15 10:24:25;;;;;;;5.28;4.82;;;;;;;22.28;31.42;101109.09;6178360;23;20001;-86
2023/04/15 10:26:51;;;;;;;5.25;4.20;;;;;;;23.29;31.36;101156.19;6177036;23;20016;-86
2023/04/15 10:29:17;;;;;;;4.90;4.50;;;;;;;23.83;29.42;101157.09;6175599;23;20391;-86
2023/04/15 10:31:43;;;;;;;5.30;4.80;;;;;;;24.04;29.05;101142.31;6172021;23;20015;-86
2023/04/15 10:34:15;;;;;;;5.07;4.57;;;;;;;24.48;28.79;101164.06;6185183;23;20009;-88
2023/04/15 10:36:40;;;;;;;4.30;3.90;;;;;;;24.11;27.55;101152.38;6174559;23;20004;-87
2023/04/15 10:39:37;;;;;;;6.65;3.70;;;;;;;23.90;29.50;101160.03;6172763;23;20005;-86
2023/04/15 10:42:08;;;;;;;3.35;2.95;;;;;;;22.97;28.76;101145.81;6172884;23;20039;-87
2023/04/15 10:44:36;;;;;;;4.07;2.75;;;;;;;22.39;29.11;101170.41;6175576;23;20001;-88
2023/04/15 10:47:06;;;;;;;3.20;2.40;;;;;;;21.63;29.62;101145.94;6175675;23;20005;-87
2023/04/15 10:49:31;;;;;;;3.38;2.40;;;;;;;22.27;29.43;101175.16;6175425;23;20094;-89
2023/04/15 10:51:58;;;;;;;2.58;2.38;;;;;;;22.33;29.08;101150.19;6175664;23;20009;-88
2023/04/15 10:54:23;;;;;;;2.75;2.50;;;;;;;22.31;29.44;101183.84;6176603;23;20132;-88
2023/04/15 10:57:07;;;;;;;3.13;2.70;;;;;;;22.85;29.68;101188.53;6149938;23;20431;-89
2023/04/15 10:59:37;;;;;;;3.13;2.80;;;;;;;22.84;28.90;101159.69;6177244;23;20443;-88
2023/04/15 11:02:05;;;;;;;2.50;2.30;;;;;;;22.71;28.47;101155.63;6176787;23;20013;-88
2023/04/15 11:04:59;;;;;;;3.78;2.72;;;;;;;22.95;29.24;101188.53;6178888;23;20009;-87
2023/04/15 11:07:40;;;;;;;2.53;2.33;;;;;;;23.76;28.84;101188.63;6180143;23;20008;-89
2023/04/15 11:10:17;;;;;;;2.67;1.80;;;;;;;24.19;26.93;101192.38;6178245;23;20009;-88
2023/04/15 11:12:44;;;;;;;1.90;1.63;;;;;;;23.07;26.84;101179.19;6196469;23;20049;-87
2023/04/15 11:15:31;;;;;;;2.20;2.00;;;;;;;22.98;28.86;101185.50;6203431;23;20024;-87
2023/04/15 11:18:23;;;;;;;2.45;2.13;;;;;;;23.09;29.80;101185.31;6176903;23;19993;-86
2023/04/15 11:20:56;;;;;;;2.38;2.17;;;;;;;22.96;28.37;101195.69;6196717;23;20009;-88
2023/04/15 11:23:28;;;;;;;;;;;;;;;24.65;29.24;101201.22;6164339;23;20044;-88
2023/04/15 11:25:58;;;;;;;3.00;2.40;;;;;;;23.16;27.73;101169.28;6189093;23;19918;-85
2023/04/15 11:28:29;;;;;;;3.55;2.70;;;;;;;22.84;28.70;101175.97;6186645;23;20076;-87
2023/04/15 11:30:55;;;;;;;2.78;2.40;;;;;;;23.14;28.96;101184.84;6188288;23;20008;-87
2023/04/15 11:33:22;;;;;;;3.22;2.67;;;;;;;23.71;28.07;101193.66;6185927;23;20005;-88
2023/04/15 11:35:48;;;;;;;3.95;2.47;;;;;;;23.83;26.88;101192.44;6160620;23;20133;-86
2023/04/15 11:38:15;;;;;;;3.65;2.60;;;;;;;23.61;27.63;101173.81;6184010;23;20004;-87
2023/04/15 11:40:42;;;;;;;3.25;2.95;;;;;;;23.50;27.57;101183.06;6156437;23;20084;-87
2023/04/15 11:43:08;;;;;;;5.00;3.13;;;;;;;23.21;28.35;101215.84;6180151;23;20108;-87
2023/04/15 11:45:46;;;;;;;5.32;3.75;;;;;;;22.26;29.96;101197.84;6179421;23;20084;-86
2023/04/15 11:48:12;;;;;;;3.40;3.00;;;;;;;21.81;30.61;101211.09;6179512;23;20504;-86
2023/04/15 11:50:39;;;;;;;3.40;3.10;;;;;;;20.80;31.85;101195.88;6177802;23;20016;-87
2023/04/15 11:53:07;;;;;;;3.90;3.50;;;;;;;21.04;31.74;101190.97;6183659;23;20096;-89
2023/04/15 11:55:45;;;;;;;3.65;3.33;;;;;;;21.58;31.88;101234.91;6185225;23;20032;-86
2023/04/15 11:58:16;;;;;;;2.90;2.70;;;;;;;21.57;31.44;101222.34;6188812;23;20056;-88
2023/04/15 12:00:46;;;;;;;3.40;3.10;;;;;;;22.10;30.66;101219.22;6188071;23;20020;-86
2023/04/15 12:03:13;;;;;;;76.88;9.10;;;;;;;22.91;29.79;101200.69;6187093;23;20016;-86
2023/04/15 12:06:20;;;;;;;3.28;2.80;;;;;;;23.54;30.37;101232.53;6191760;23;20005;-85
2023/04/15 12:09:27;;;;;;;3.45;2.83;;;;;;;24.48;28.83;101226.63;6180853;23;20335;-84
2023/04/15 12:11:57;;;;;;;2.45;2.25;;;;;;;24.33;27.55;101197.25;6114445;23;20092;-88
2023/04/15 12:14:32;;;;;;;2.30;2.05;;;;;;;24.53;27.11;101199.78;6181820;23;20012;-89
2023/04/15 12:17:00;;;;;;;2.25;1.83;;;;;;;25.22;25.90;101244.28;6178519;23;20012;-87
2023/04/15 12:19:47;;;;;;;2.25;2.05;;;;;;;25.34;25.21;101202.94;6153179;23;20446;-87
2023/04/15 12:22:15;;;;;;;2.85;2.22;;;;;;;25.07;26.26;101205.88;6180671;23;20013;-87
2023/04/15 12:24:47;;;;;;;2.20;1.98;;;;;;;24.61;25.67;101221.63;6181365;23;20513;-88
2023/04/15 12:27:14;;;;;;;2.17;1.98;;;;;;;24.58;25.35;101230.13;6182917;23;20009;-87
2023/04/15 12:29:41;;;;;;;2.40;2.03;;;;;;;24.44;26.02;101253.28;6183422;23;20071;-89
2023/04/15 12:32:14;;;;;;;2.50;2.30;;;;;;;23.78;27.09;101254.53;6182038;23;20366;-88
2023/04/15 12:34:48;;;;;;;2.25;1.90;;;;;;;23.27;28.00;101245.09;6184355;23;20008;-88
2023/04/15 12:37:14;;;;;;;2.38;2.17;;;;;;;23.34;27.45;101231.78;6182609;23;20016;-86
2023/04/15 12:39:42;;;;;;;2.85;2.65;;;;;;;22.70;28.47;101238.88;6182563;23;20127;-87
2023/04/15 12:42:08;;;;;;;2.70;2.50;;;;;;;21.94;29.92;101265.03;6178398;23;20016;-87
2023/04/15 12:44:35;;;;;;;3.05;2.55;;;;;;;22.50;29.90;101278.75;6179499;23;20005;-86
2023/04/15 12:47:00;;;;;;;2.75;2.28;;;;;;;24.59;27.23;101251.72;6151586;23;20016;-88
2023/04/15 12:49:26;;;;;;;2.60;2.40;;;;;;;25.09;26.00;101280.13;6177184;23;20029;-89
2023/04/15 12:51:53;;;;;;;3.47;2.80;;;;;;;23.74;27.03;101277.59;6175641;23;20066;-88
2023/04/15 12:54:20;;;;;;;3.28;2.70;;;;;;;22.99;28.01;101243.34;6182763;23;20001;-86
2023/04/15 12:56:47;;;;;;;3.47;2.90;;;;;;;22.21;30.01;101261.66;6176799;23;20009;-88
2023/04/15 12:59:13;;;;;;;3.53;3.10;;;;;;;21.77;30.40;101277.41;6177962;23;20017;-88
2023/04/15 13:01:39;;;;;;;3.20;2.90;;;;;;;23.02;29.28;101294.66;6148664;23;20009;-86
2023/04/15 13:04:05;;;;;;;3.63;3.25;;;;;;;22.71;28.60;101316.56;6176358;23;20012;-88
2023/04/15 13:06:32;;;;;;;3.30;3.00;;;;;;;22.49;28.70;101274.34;6175479;23;20465;-88
2023/04/15 13:09:00;;;;;;;4.43;3.17;;;;;;;21.69;30.78;101304.34;6175886;23;20009;-89
2023/04/15 13:11:26;;;;;;;3.33;3.03;;;;;;;21.10;32.15;101289.72;6148777;23;20012;-89
2023/04/15 13:13:51;;;;;;;3.13;2.83;;;;;;;20.21;32.94;101291.09;6176507;23;20009;-87
2023/04/15 13:16:17;;;;;;;3.42;3.03;;;;;;;20.03;33.64;101315.13;6151146;23;20443;-88
2023/04/15 13:18:44;;;;;;;3.10;2.70;;;;;;;19.52;34.46;101291.38;6179108;23;20001;-89
2023/04/15 13:21:10;;;;;;;3.08;2.78;;;;;;;18.35;36.50;101311.34;6129508;23;20128;-87
2023/04/15 13:23:35;;;;;;;3.17;2.88;;;;;;;18.16;36.42;101290.28;6177976;23;20069;-87
2023/04/15 13:26:01;;;;;;;3.22;2.55;;;;;;;19.45;35.37;101318.03;6177652;23;20009;-91
2023/04/15 13:28:26;;;;;;;2.88;2.55;;;;;;;20.35;32.80;101282.66;6150496;23;20039;-87
2023/04/15 13:30:51;;;;;;;3.53;2.53;;;;;;;20.62;32.80;101295.72;6175387;23;20016;-87
2023/04/15 13:33:17;;;;;;;3.75;2.60;;;;;;;20.70;33.12;101316.69;6176153;23;20485;-85
2023/04/15 13:35:42;;;;;;;3.38;2.45;;;;;;;19.34;34.01;101318.00;6175856;23;20056;-88
2023/04/15 13:38:08;;;;;;;2.67;2.22;;;;;;;18.28;35.63;101338.84;6149507;23;20005;-87
2023/04/15 13:40:34;;;;;;;3.53;2.25;;;;;;;17.22;38.44;101324.16;6175352;23;20019;-88
2023/04/15 13:42:59;;;;;;;2.35;2.15;;;;;;;17.77;38.56;101333.69;6177659;23;20028;-89
2023/04/15 13:45:25;;;;;;;2.67;2.30;;;;;;;18.56;36.80;101316.03;6176888;23;20498;-87
2023/04/15 13:47:50;;;;;;;2.90;2.30;;;;;;;19.49;36.48;101315.94;6183615;23;20412;-90
2023/04/15 13:50:16;;;;;;;2.08;1.70;;;;;;;20.49;33.28;101327.50;6194909;23;20009;-89
2023/04/15 13:52:41;;;;;;;3.05;1.77;;;;;;;20.70;32.57;101314.84;6157509;23;20017;-89
2023/04/15 13:55:07;;;;;;;2.17;2.05;;;;;;;20.71;31.97;101357.13;6178493;23;20060;-88
2023/04/15 13:57:33;;;;;;;2.47;2.28;;;;;;;20.36;32.26;101312.28;6190451;23;20005;-86
2023/04/15 13:59:58;;;;;;;3.30;2.30;;;;;;;19.76;34.20;101348.81;6172850;23;20000;-85
2023/04/15 14:02:23;;;;;;;2.92;2.38;;;;;;;19.01;35.60;101356.63;6199955;23;20063;-85
2023/04/15 14:04:49;;;;;;;3.47;2.45;;;;;;;17.72;37.60;101366.25;6202738;23;20339;-87
2023/04/15 14:07:15;;;;;;;3.30;2.05;;;;;;;17.61;38.47;101350.91;6187596;23;20005;-88
2023/04/15 14:09:40;;;;;;;2.65;2.25;;;;;;;17.13;39.82;101357.94;6187118;23;20015;-89
2023/04/15 14:12:05;;;;;;;2.72;2.42;;;;;;;16.22;41.31;101365.03;6192634;23;20005;-87
2023/04/15 14:14:31;;;;;;;2.92;2.47;;;;;;;15.60;43.88;101379.75;6187783;23;20124;-87
2023/04/15 14:16:56;;;;;;;3.10;2.80;;;;;;;15.04;45.86;101397.50;6184543;23;20021;-85
2023/04/15 14:19:23;;;;;;;5.13;2.25;;;;;;;15.00;45.41;101395.97;6183510;23;20016;-87